createdAt,value
2022-09-07T00:02:04.753Z,19.42
2022-09-07T00:04:31.786Z,19.35
2022-09-07T00:06:59.679Z,18.20
2022-09-07T00:09:26.428Z,17.88
2022-09-07T00:11:53.168Z,17.02
2022-09-07T00:14:21.202Z,17.40
2022-09-07T00:16:47.922Z,17.33
2022-09-07T00:19:14.678Z,17.52
2022-09-07T00:21:41.395Z,17.20
2022-09-07T00:24:08.189Z,14.85
2022-09-07T00:26:35.353Z,15.85
2022-09-07T00:29:03.571Z,14.98
2022-09-07T00:31:31.089Z,14.63
2022-09-07T00:34:00.089Z,15.57
2022-09-07T00:36:27.098Z,14.18
2022-09-07T00:38:54.037Z,14.88
2022-09-07T00:41:21.436Z,14.18
2022-09-07T00:43:49.613Z,12.98
2022-09-07T00:46:18.678Z,12.90
2022-09-07T00:48:52.136Z,12.88
2022-09-07T00:51:27.845Z,11.23
2022-09-07T00:53:58.921Z,11.45
2022-09-07T00:56:29.993Z,11.63
2022-09-07T00:58:56.798Z,10.30
2022-09-07T01:01:25.148Z,9.18
2022-09-07T01:03:54.773Z,8.98
2022-09-07T01:06:25.526Z,8.15
2022-09-07T01:08:52.277Z,7.20
2022-09-07T01:11:21.226Z,7.38
2022-09-07T01:13:49.804Z,7.22
2022-09-07T01:16:44.671Z,6.63
2022-09-07T01:19:30.669Z,6.25
2022-09-07T01:22:26.942Z,6.07
2022-09-07T01:25:13.475Z,5.68
2022-09-07T01:28:13.829Z,5.90
2022-09-07T01:30:44.551Z,5.50
2022-09-07T01:33:42.650Z,6.05
2022-09-07T01:36:26.234Z,6.07
2022-09-07T01:39:00.481Z,6.28
2022-09-07T01:41:46.743Z,5.40
2022-09-07T01:44:37.167Z,5.78
2022-09-07T01:47:23.208Z,6.18
2022-09-07T01:50:19.043Z,5.47
2022-09-07T01:52:54.438Z,5.82
2022-09-07T01:55:26.974Z,5.53
2022-09-07T01:58:01.317Z,6.13
2022-09-07T02:00:28.253Z,6.13
2022-09-07T02:02:59.353Z,6.03
2022-09-07T02:05:43.394Z,5.65
2022-09-07T02:08:17.312Z,5.78
2022-09-07T02:10:56.616Z,6.32
2022-09-07T02:13:28.929Z,5.95
2022-09-07T02:16:12.360Z,5.80
2022-09-07T02:18:44.016Z,5.75
2022-09-07T02:21:14.420Z,6.35
2022-09-07T02:23:46.667Z,5.90
2022-09-07T02:26:16.632Z,5.68
2022-09-07T02:28:43.756Z,6.03
2022-09-07T02:31:10.600Z,6.18
2022-09-07T02:33:37.616Z,5.75
2022-09-07T02:36:05.439Z,5.90
2022-09-07T02:38:33.002Z,5.10
2022-09-07T02:41:01.162Z,5.35
2022-09-07T02:43:28.719Z,5.90
2022-09-07T02:46:16.859Z,5.35
2022-09-07T02:49:16.368Z,5.20
2022-09-07T02:52:12.670Z,4.70
2022-09-07T02:54:57.908Z,4.60
2022-09-07T02:57:32.128Z,4.95
2022-09-07T03:00:11.599Z,4.85
2022-09-07T03:03:00.553Z,5.30
2022-09-07T03:05:33.682Z,5.53
2022-09-07T03:08:07.712Z,4.97
2022-09-07T03:10:38.488Z,5.22
2022-09-07T03:13:05.241Z,4.95
2022-09-07T03:15:32.014Z,4.72
2022-09-07T03:17:58.840Z,4.60
2022-09-07T03:20:25.628Z,4.65
2022-09-07T03:22:53.061Z,5.75
2022-09-07T03:25:20.195Z,5.10
2022-09-07T03:27:47.063Z,5.43
2022-09-07T03:30:14.280Z,5.20
2022-09-07T03:32:42.000Z,5.88
2022-09-07T03:35:09.425Z,5.88
2022-09-07T03:37:37.192Z,6.22
2022-09-07T03:40:06.374Z,5.40
2022-09-07T03:42:33.245Z,5.22
2022-09-07T03:45:00.027Z,5.35
2022-09-07T03:47:26.820Z,5.20
2022-09-07T03:49:53.540Z,4.70
2022-09-07T03:52:20.262Z,5.55
2022-09-07T03:54:47.016Z,5.68
2022-09-07T03:57:13.780Z,5.57
2022-09-07T03:59:40.498Z,5.35
2022-09-07T04:02:07.339Z,5.97
2022-09-07T04:04:34.122Z,5.22
2022-09-07T04:07:00.926Z,6.22
2022-09-07T04:09:27.696Z,6.55
2022-09-07T04:11:54.443Z,5.93
2022-09-07T04:14:21.280Z,6.68
2022-09-07T04:16:48.588Z,6.35
2022-09-07T04:19:15.340Z,6.22
2022-09-07T04:21:44.259Z,5.95
2022-09-07T04:24:11.013Z,7.13
2022-09-07T04:26:37.952Z,7.30
2022-09-07T04:29:05.299Z,6.88
2022-09-07T04:31:33.656Z,6.03
2022-09-07T04:34:00.392Z,6.28
2022-09-07T04:36:27.320Z,6.38
2022-09-07T04:39:02.627Z,7.53
2022-09-07T04:41:31.077Z,7.45
2022-09-07T04:44:00.150Z,7.07
2022-09-07T04:46:33.758Z,7.55
2022-09-07T04:49:05.655Z,7.32
2022-09-07T04:51:33.550Z,7.95
2022-09-07T04:54:02.059Z,8.52
2022-09-07T04:56:29.285Z,7.90
2022-09-07T04:58:56.972Z,8.15
2022-09-07T05:01:24.941Z,8.38
2022-09-07T05:03:52.158Z,9.25
2022-09-07T05:06:20.163Z,9.25
2022-09-07T05:08:50.448Z,10.18
2022-09-07T05:11:18.327Z,10.27
2022-09-07T05:13:45.367Z,9.38
2022-09-07T05:16:18.084Z,9.60
2022-09-07T05:18:49.194Z,8.77
2022-09-07T05:21:18.344Z,11.48
2022-09-07T05:23:45.417Z,10.25
2022-09-07T05:26:12.331Z,11.20
2022-09-07T05:28:39.237Z,9.50
2022-09-07T05:31:18.076Z,10.13
2022-09-07T05:36:46.576Z,9.63
2022-09-07T05:39:13.422Z,11.20
2022-09-07T05:41:55.353Z,10.43
2022-09-07T05:44:45.007Z,10.13
2022-09-07T05:47:12.730Z,10.70
2022-09-07T05:49:39.676Z,11.18
2022-09-07T05:52:06.926Z,12.20
2022-09-07T05:54:33.738Z,11.60
2022-09-07T05:57:00.607Z,11.93
2022-09-07T05:59:48.282Z,11.95
2022-09-07T06:02:17.183Z,12.18
2022-09-07T06:04:44.208Z,12.63
2022-09-07T06:07:28.526Z,13.45
2022-09-07T06:12:49.020Z,13.10
2022-09-07T06:15:16.476Z,12.63
2022-09-07T06:17:43.263Z,12.50
2022-09-07T06:20:10.357Z,13.25
2022-09-07T06:22:37.721Z,13.43
2022-09-07T06:25:05.371Z,12.77
2022-09-07T06:27:32.454Z,14.02
2022-09-07T06:29:59.176Z,13.82
2022-09-07T06:35:09.503Z,13.15
2022-09-07T06:37:38.675Z,14.30
2022-09-07T06:40:06.238Z,13.00
2022-09-07T06:42:33.278Z,13.05
2022-09-07T06:45:00.243Z,13.60
2022-09-07T06:47:28.630Z,12.70
2022-09-07T06:49:55.391Z,13.07
2022-09-07T06:52:22.563Z,14.45
2022-09-07T06:55:04.676Z,14.13
2022-09-07T06:57:31.575Z,13.98
2022-09-07T06:59:58.481Z,13.10
2022-09-07T07:02:25.207Z,14.32
2022-09-07T07:04:52.074Z,14.60
2022-09-07T07:07:18.816Z,14.45
2022-09-07T07:09:45.680Z,15.90
2022-09-07T07:12:12.403Z,16.77
2022-09-07T07:14:43.988Z,17.13
2022-09-07T07:17:11.587Z,18.17
2022-09-07T07:19:38.397Z,17.50
2022-09-07T07:22:23.885Z,18.15
2022-09-07T07:24:52.334Z,16.90
2022-09-07T07:27:19.110Z,17.38
2022-09-07T07:29:46.051Z,17.30
2022-09-07T07:32:12.938Z,17.75
2022-09-07T07:34:39.708Z,18.38
2022-09-07T07:37:06.519Z,17.75
2022-09-07T07:42:21.286Z,16.55
2022-09-07T07:44:48.727Z,17.55
2022-09-07T07:47:15.562Z,17.13
2022-09-07T07:49:42.395Z,16.70
2022-09-07T07:57:24.821Z,16.90
2022-09-07T07:59:51.754Z,17.75
2022-09-07T08:02:18.498Z,18.75
2022-09-07T08:04:45.225Z,18.80
2022-09-07T08:07:12.094Z,18.95
2022-09-07T08:09:40.526Z,18.08
2022-09-07T08:12:08.054Z,18.80
2022-09-07T08:14:40.472Z,18.30
2022-09-07T08:17:07.932Z,18.38
2022-09-07T08:19:34.619Z,19.50
2022-09-07T08:22:01.358Z,18.35
2022-09-07T08:24:28.099Z,18.77
2022-09-07T08:26:54.821Z,19.42
2022-09-07T08:29:21.558Z,20.42
2022-09-07T08:31:48.413Z,19.70
2022-09-07T08:34:15.125Z,20.33
2022-09-07T08:36:41.833Z,20.02
2022-09-07T08:39:08.518Z,19.83
2022-09-07T08:41:44.422Z,20.83
2022-09-07T08:44:29.644Z,21.75
2022-09-07T08:46:58.534Z,21.20
2022-09-07T08:49:47.357Z,21.90
2022-09-07T08:52:16.017Z,21.50
2022-09-07T08:54:45.169Z,22.83
2022-09-07T08:57:28.284Z,23.02
2022-09-07T09:00:10.237Z,22.92
2022-09-07T09:02:43.495Z,20.67
2022-09-07T09:05:33.103Z,19.23
2022-09-07T09:08:05.346Z,19.10
2022-09-07T09:10:47.932Z,18.23
2022-09-07T09:13:14.622Z,18.90
2022-09-07T09:15:53.670Z,17.48
2022-09-07T09:20:57.500Z,18.73
2022-09-07T09:23:26.877Z,17.85
2022-09-07T09:25:55.811Z,18.65
2022-09-07T09:28:24.697Z,16.42
2022-09-07T09:30:53.315Z,15.48
2022-09-07T09:33:27.503Z,15.07
2022-09-07T09:35:56.585Z,15.13
2022-09-07T09:40:58.447Z,13.50
2022-09-07T09:43:28.064Z,12.63
2022-09-07T09:46:13.019Z,12.60
2022-09-07T09:48:41.509Z,11.70
2022-09-07T09:54:15.125Z,13.52
2022-09-07T09:56:44.304Z,12.90
2022-09-07T10:05:33.872Z,11.88
2022-09-07T10:08:00.657Z,10.43
2022-09-07T10:10:28.658Z,10.43
2022-09-07T10:12:55.910Z,9.90
2022-09-07T10:15:40.592Z,10.80
2022-09-07T10:18:18.814Z,9.50
2022-09-07T10:20:45.713Z,8.25
2022-09-07T10:23:22.131Z,8.82
2022-09-07T10:25:49.085Z,7.88
2022-09-07T10:28:21.381Z,8.60
2022-09-07T10:30:54.176Z,7.68
2022-09-07T10:33:27.553Z,7.75
2022-09-07T10:36:02.778Z,7.90
2022-09-07T10:38:31.698Z,7.25
2022-09-07T10:41:09.728Z,7.93
2022-09-07T10:43:45.835Z,8.43
2022-09-07T10:47:00.132Z,7.80
2022-09-07T10:53:39.511Z,8.25
2022-09-07T10:56:38.786Z,8.18
2022-09-07T10:59:18.479Z,8.35
2022-09-07T11:02:12.549Z,8.63
2022-09-07T11:05:02.929Z,8.65
2022-09-07T11:07:48.397Z,8.40
2022-09-07T11:10:43.092Z,7.82
2022-09-07T11:13:13.838Z,7.55
2022-09-07T11:15:45.838Z,7.13
2022-09-07T11:18:23.837Z,7.20
2022-09-07T11:20:55.755Z,7.13
2022-09-07T11:23:44.995Z,7.30
2022-09-07T11:26:25.597Z,6.05
2022-09-07T11:31:52.239Z,5.22
2022-09-07T11:34:29.116Z,5.05
2022-09-07T11:37:01.088Z,5.70
2022-09-07T11:39:35.459Z,4.68
2022-09-07T11:45:25.234Z,4.40
2022-09-07T11:48:00.020Z,4.75
2022-09-07T11:50:29.996Z,4.65
2022-09-07T11:53:32.916Z,4.30
2022-09-07T11:56:04.694Z,4.30
2022-09-07T11:59:08.638Z,3.80
2022-09-07T12:01:57.310Z,3.47
2022-09-07T12:04:33.510Z,3.70
2022-09-07T12:07:19.702Z,3.30
2022-09-07T12:09:52.889Z,3.80
2022-09-07T12:12:48.471Z,3.53
2022-09-07T12:15:33.829Z,3.72
2022-09-07T12:18:12.196Z,3.10
2022-09-07T12:20:47.426Z,3.00
2022-09-07T12:23:17.133Z,2.85
2022-09-07T12:25:46.006Z,2.80
2022-09-07T12:28:23.958Z,2.80
2022-09-07T12:31:05.818Z,2.85
2022-09-07T12:33:32.490Z,3.40
2022-09-07T12:36:00.876Z,3.10
2022-09-07T12:38:30.688Z,2.80
2022-09-07T12:41:18.302Z,2.63
2022-09-07T12:43:48.775Z,2.60
2022-09-07T12:46:34.886Z,2.40
2022-09-07T12:49:29.070Z,2.85
2022-09-07T12:52:14.875Z,2.80
2022-09-07T12:55:28.547Z,2.35
2022-09-07T12:58:14.299Z,2.50
2022-09-07T13:00:50.031Z,2.25
2022-09-07T13:03:51.770Z,2.30
2022-09-07T13:07:03.115Z,2.17
2022-09-07T13:09:41.040Z,2.13
2022-09-07T13:15:41.518Z,2.20
2022-09-07T13:18:27.223Z,2.15
2022-09-07T13:21:08.979Z,2.17
2022-09-07T13:23:40.142Z,2.20
2022-09-07T13:26:09.393Z,2.10
2022-09-07T13:28:51.264Z,2.03
2022-09-07T13:31:42.200Z,2.13
2022-09-07T13:34:33.971Z,2.17
2022-09-07T13:37:05.805Z,2.05
2022-09-07T13:39:42.350Z,1.90
2022-09-07T13:42:16.717Z,1.92
2022-09-07T13:44:53.751Z,2.05
2022-09-07T13:47:30.776Z,2.35
2022-09-07T13:50:19.321Z,2.17
2022-09-07T13:53:04.855Z,2.20
2022-09-07T13:55:38.509Z,2.22
2022-09-07T13:58:34.786Z,2.35
2022-09-07T14:01:08.235Z,2.00
2022-09-07T14:03:43.556Z,1.80
2022-09-07T14:06:22.437Z,2.25
2022-09-07T14:08:51.687Z,2.20
2022-09-07T14:11:19.547Z,2.20
2022-09-07T14:13:46.346Z,2.00
2022-09-07T14:16:13.294Z,1.80
2022-09-07T14:18:40.295Z,2.25
2022-09-07T14:21:09.543Z,2.10
2022-09-07T14:23:36.760Z,2.30
2022-09-07T14:26:16.725Z,2.20
2022-09-07T14:28:46.017Z,2.28
2022-09-07T14:31:15.276Z,1.98
2022-09-07T14:33:54.238Z,2.28
2022-09-07T14:36:48.240Z,1.75
2022-09-07T14:39:17.244Z,2.25
2022-09-07T14:41:44.519Z,2.08
2022-09-07T14:44:29.860Z,2.30
2022-09-07T14:46:59.146Z,2.08
2022-09-07T14:49:25.889Z,2.03
2022-09-07T14:51:54.602Z,1.90
2022-09-07T14:54:32.448Z,2.10
2022-09-07T14:57:24.171Z,2.37
2022-09-07T14:59:53.632Z,3.00
2022-09-07T15:02:28.545Z,3.33
2022-09-07T15:05:14.347Z,2.20
2022-09-07T15:07:45.866Z,2.00
2022-09-07T15:10:14.274Z,1.85
2022-09-07T15:12:43.091Z,2.03
2022-09-07T15:18:04.514Z,2.10
2022-09-07T15:20:36.828Z,2.10
2022-09-07T15:23:13.308Z,2.15
2022-09-07T15:25:44.341Z,2.28
2022-09-07T15:34:04.988Z,2.30
2022-09-07T15:36:32.261Z,2.47
2022-09-07T15:38:59.899Z,1.90
2022-09-07T15:41:27.809Z,2.03
2022-09-07T15:43:55.506Z,2.10
2022-09-07T15:48:54.388Z,2.20
2022-09-07T15:54:13.832Z,2.20
2022-09-07T15:56:42.676Z,2.08
2022-09-07T15:59:10.319Z,1.88
2022-09-07T16:01:54.719Z,2.00
2022-09-07T16:04:24.090Z,1.85
2022-09-07T16:06:51.085Z,2.13
2022-09-07T16:09:21.632Z,1.77
2022-09-07T16:11:50.123Z,2.10
2022-09-07T16:14:17.723Z,1.80
2022-09-07T16:19:34.974Z,1.92
2022-09-07T16:22:03.092Z,1.98
2022-09-07T16:24:30.040Z,2.08
2022-09-07T16:26:56.809Z,1.80
2022-09-07T16:29:23.468Z,1.90
2022-09-07T16:34:37.250Z,1.75
2022-09-07T16:37:04.091Z,1.70
2022-09-07T16:39:31.961Z,1.98
2022-09-07T16:42:00.033Z,1.80
2022-09-07T16:44:26.862Z,2.07
2022-09-07T16:46:54.974Z,1.85
2022-09-07T16:49:21.991Z,2.10
2022-09-07T16:51:49.820Z,2.00
2022-09-07T16:54:17.598Z,1.97
2022-09-07T16:56:44.319Z,2.13
2022-09-07T16:59:16.544Z,3.17
2022-09-07T17:01:43.281Z,3.45
2022-09-07T17:04:11.430Z,2.60
2022-09-07T17:06:39.819Z,2.08
2022-09-07T17:09:07.245Z,2.23
2022-09-07T17:11:35.420Z,1.90
2022-09-07T17:14:02.453Z,1.70
2022-09-07T17:16:37.392Z,2.13
2022-09-07T17:21:53.562Z,1.80
2022-09-07T17:24:20.593Z,1.90
2022-09-07T17:26:48.440Z,1.80
2022-09-07T17:29:15.128Z,1.88
2022-09-07T17:34:30.188Z,1.92
2022-09-07T17:36:57.138Z,1.80
2022-09-07T17:39:23.887Z,2.40
2022-09-07T17:41:54.441Z,1.85
2022-09-07T17:44:22.469Z,2.15
2022-09-07T17:46:49.306Z,2.03
2022-09-07T17:49:19.097Z,1.92
2022-09-07T17:51:46.022Z,2.20
2022-09-07T17:54:17.874Z,2.10
2022-09-07T17:56:45.280Z,1.92
2022-09-07T18:01:58.891Z,2.50
2022-09-07T18:04:25.844Z,2.38
2022-09-07T18:06:54.131Z,2.58
2022-09-07T18:09:22.133Z,2.33
2022-09-07T18:11:50.110Z,2.63
2022-09-07T18:14:18.043Z,2.80
2022-09-07T18:16:46.429Z,2.63
2022-09-07T18:19:13.491Z,2.50
2022-09-07T18:21:42.902Z,2.38
2022-09-07T18:24:18.512Z,2.90
2022-09-07T18:26:50.182Z,2.33
2022-09-07T18:29:28.706Z,2.25
2022-09-07T18:31:57.186Z,2.30
2022-09-07T18:34:24.093Z,2.22
2022-09-07T18:36:51.217Z,2.45
2022-09-07T18:39:18.161Z,2.40
